createdAt,value
2018-04-02T00:00:39.866Z,27.27
2018-04-02T00:02:45.459Z,24.90
2018-04-02T00:04:51.539Z,25.67
2018-04-02T00:06:56.861Z,25.87
2018-04-02T00:09:02.564Z,24.50
2018-04-02T00:11:08.924Z,27.23
2018-04-02T00:13:14.453Z,24.50
2018-04-02T00:15:21.040Z,24.93
2018-04-02T00:17:27.536Z,22.97
2018-04-02T00:19:33.569Z,22.50
2018-04-02T00:21:40.352Z,21.90
2018-04-02T00:23:48.232Z,24.07
2018-04-02T00:25:54.454Z,23.00
2018-04-02T00:28:01.048Z,25.57
2018-04-02T00:30:16.218Z,23.53
2018-04-02T00:32:26.445Z,23.07
2018-04-02T00:34:32.218Z,23.20
2018-04-02T00:36:38.425Z,22.10
2018-04-02T00:38:43.867Z,22.80
2018-04-02T00:40:50.039Z,24.50
2018-04-02T00:42:55.584Z,22.70
2018-04-02T00:45:01.168Z,23.20
2018-04-02T00:47:08.178Z,24.50
2018-04-02T00:49:13.884Z,23.07
2018-04-02T00:51:20.155Z,25.30
2018-04-02T00:53:26.889Z,21.40
2018-04-02T00:55:32.151Z,26.30
2018-04-02T00:57:37.500Z,22.90
2018-04-02T00:59:43.361Z,23.00
2018-04-02T01:01:48.718Z,24.83
2018-04-02T01:03:55.116Z,24.10
2018-04-02T01:06:01.738Z,21.93
2018-04-02T01:08:07.058Z,24.07
2018-04-02T01:10:12.695Z,24.03
2018-04-02T01:12:19.428Z,23.67
2018-04-02T01:14:25.044Z,23.70
2018-04-02T01:16:30.884Z,22.17
2018-04-02T01:18:36.868Z,23.63
2018-04-02T01:20:42.396Z,24.50
2018-04-02T01:22:47.772Z,23.07
2018-04-02T01:24:54.598Z,24.27
2018-04-02T01:27:00.310Z,21.80
2018-04-02T01:29:06.120Z,25.13
2018-04-02T01:31:12.344Z,23.03
2018-04-02T01:33:18.014Z,24.13
2018-04-02T01:35:24.016Z,24.00
2018-04-02T01:37:30.708Z,24.37
2018-04-02T01:39:37.044Z,23.77
2018-04-02T01:41:42.556Z,23.50
2018-04-02T01:43:48.164Z,23.77
2018-04-02T01:45:53.456Z,23.10
2018-04-02T01:47:59.488Z,23.97
2018-04-02T01:50:05.064Z,24.03
2018-04-02T01:52:10.400Z,23.30
2018-04-02T01:54:15.677Z,27.30
2018-04-02T01:56:21.920Z,24.00
2018-04-02T01:58:28.468Z,26.10
2018-04-02T02:00:34.048Z,23.27
2018-04-02T02:02:40.320Z,25.97
2018-04-02T02:04:46.272Z,24.73
2018-04-02T02:06:52.251Z,24.93
2018-04-02T02:08:58.888Z,23.27
2018-04-02T02:11:05.279Z,23.30
2018-04-02T02:13:10.631Z,23.63
2018-04-02T02:15:16.141Z,23.47
2018-04-02T02:17:22.103Z,22.43
2018-04-02T02:19:28.112Z,22.83
2018-04-02T02:21:33.350Z,25.23
2018-04-02T02:23:39.635Z,22.93
2018-04-02T02:25:45.399Z,24.57
2018-04-02T02:27:51.516Z,23.90
2018-04-02T02:29:57.814Z,23.33
2018-04-02T02:32:04.188Z,24.10
2018-04-02T02:34:10.016Z,24.00
2018-04-02T02:36:15.880Z,24.33
2018-04-02T02:38:22.123Z,23.60
2018-04-02T02:40:27.501Z,25.10
2018-04-02T02:42:33.930Z,23.90
2018-04-02T02:44:40.478Z,23.30
2018-04-02T02:46:47.006Z,23.73
2018-04-02T02:48:52.752Z,25.30
2018-04-02T02:50:58.197Z,25.40
2018-04-02T02:53:04.498Z,25.30
2018-04-02T02:55:10.355Z,27.07
2018-04-02T02:57:16.433Z,26.50
2018-04-02T02:59:23.224Z,24.40
2018-04-02T03:01:28.601Z,25.87
2018-04-02T03:03:33.897Z,24.90
2018-04-02T03:05:39.612Z,27.20
2018-04-02T03:07:46.066Z,25.93
2018-04-02T03:09:53.019Z,26.23
2018-04-02T03:11:59.184Z,26.60
2018-04-02T03:14:04.902Z,27.27
2018-04-02T03:16:11.949Z,26.00
2018-04-02T03:18:18.067Z,25.00
2018-04-02T03:20:23.965Z,24.90
2018-04-02T03:22:30.665Z,26.67
2018-04-02T03:24:36.389Z,28.03
2018-04-02T03:26:42.241Z,26.40
2018-04-02T03:28:49.204Z,26.10
2018-04-02T03:30:55.607Z,26.50
2018-04-02T03:33:01.385Z,27.00
2018-04-02T03:35:08.212Z,28.00
2018-04-02T03:37:14.060Z,25.33
2018-04-02T03:39:19.308Z,25.40
2018-04-02T03:41:25.992Z,24.73
2018-04-02T03:43:31.970Z,25.90
2018-04-02T03:45:38.172Z,25.80
2018-04-02T03:47:44.873Z,25.13
2018-04-02T03:49:50.212Z,26.70
2018-04-02T03:51:55.930Z,24.40
2018-04-02T03:54:01.922Z,26.90
2018-04-02T03:56:07.773Z,28.77
2018-04-02T03:58:14.534Z,28.07
2018-04-02T04:00:21.108Z,25.93
2018-04-02T04:02:27.057Z,28.10
2018-04-02T04:04:33.192Z,28.50
2018-04-02T04:06:39.096Z,25.90
2018-04-02T04:08:45.609Z,30.33
2018-04-02T04:10:51.656Z,29.10
2018-04-02T04:12:57.348Z,28.30
2018-04-02T04:15:03.732Z,29.00
2018-04-02T04:17:09.198Z,29.90
2018-04-02T04:19:14.899Z,29.27
2018-04-02T04:21:20.196Z,26.97
2018-04-02T04:23:27.268Z,28.47
2018-04-02T04:25:33.825Z,28.60
2018-04-02T04:27:39.967Z,29.10
2018-04-02T04:29:46.408Z,31.43
2018-04-02T04:31:52.368Z,28.23
2018-04-02T04:33:58.400Z,27.87
2018-04-02T04:36:04.810Z,28.60
2018-04-02T04:38:11.528Z,28.33
2018-04-02T04:40:18.025Z,28.97
2018-04-02T04:42:23.634Z,29.70
2018-04-02T04:44:29.821Z,27.67
2018-04-02T04:46:35.400Z,28.37
2018-04-02T04:48:40.701Z,29.43
2018-04-02T04:50:46.568Z,30.03
2018-04-02T04:52:53.154Z,27.50
2018-04-02T04:54:58.875Z,26.60
2018-04-02T04:57:04.220Z,25.83
2018-04-02T04:59:10.207Z,27.43
2018-04-02T05:01:16.113Z,27.40
2018-04-02T05:03:21.996Z,25.90
2018-04-02T05:05:27.668Z,27.50
2018-04-02T05:07:33.704Z,26.60
2018-04-02T05:09:40.864Z,26.70
2018-04-02T05:11:46.956Z,25.50
2018-04-02T05:13:52.576Z,25.70
2018-04-02T05:15:59.760Z,27.60
2018-04-02T05:18:05.512Z,26.60
2018-04-02T05:20:11.037Z,26.27
2018-04-02T05:22:17.383Z,26.47
2018-04-02T05:24:23.500Z,26.60
2018-04-02T05:26:29.696Z,27.17
2018-04-02T05:30:50.196Z,26.70
2018-04-02T05:32:59.699Z,27.07
2018-04-02T05:35:05.942Z,26.20
2018-04-02T05:37:11.438Z,26.53
2018-04-02T05:39:17.428Z,26.47
2018-04-02T05:41:23.719Z,26.90
2018-04-02T05:43:29.846Z,28.13
2018-04-02T05:45:35.403Z,25.80
2018-04-02T05:47:41.027Z,27.37
2018-04-02T05:49:46.925Z,26.00
2018-04-02T05:51:52.928Z,25.53
2018-04-02T05:53:59.289Z,25.10
2018-04-02T05:56:05.524Z,26.57
2018-04-02T05:58:11.605Z,27.63
2018-04-02T06:00:17.409Z,24.70
2018-04-02T06:02:23.525Z,27.40
2018-04-02T06:04:29.027Z,25.80
2018-04-02T06:06:34.519Z,25.53
2018-04-02T06:08:40.515Z,26.20
2018-04-02T06:10:46.224Z,24.97
2018-04-02T06:12:52.784Z,25.33
2018-04-02T06:14:59.481Z,25.17
2018-04-02T06:17:06.533Z,25.13
2018-04-02T06:19:12.092Z,23.97
2018-04-02T06:21:18.855Z,25.27
2018-04-02T06:23:24.811Z,25.00
2018-04-02T06:25:30.565Z,23.87
2018-04-02T06:27:36.348Z,24.30
2018-04-02T06:29:42.518Z,25.50
2018-04-02T06:31:48.716Z,25.40
2018-04-02T06:33:54.826Z,23.00
2018-04-02T06:36:00.888Z,25.43
2018-04-02T06:38:06.619Z,25.57
2018-04-02T06:40:13.086Z,24.43
2018-04-02T06:42:19.529Z,25.20
2018-04-02T06:44:25.249Z,23.53
2018-04-02T06:46:31.731Z,24.63
2018-04-02T06:48:37.688Z,23.30
2018-04-02T06:50:43.561Z,25.60
2018-04-02T06:52:49.930Z,23.50
2018-04-02T06:54:55.636Z,25.10
2018-04-02T06:57:01.557Z,24.47
2018-04-02T06:59:07.238Z,23.77
2018-04-02T07:01:13.633Z,24.03
2018-04-02T07:03:20.829Z,24.10
2018-04-02T07:05:28.110Z,23.80
2018-04-02T07:07:33.594Z,23.30
2018-04-02T07:09:39.361Z,40.47
2018-04-02T07:11:46.387Z,241.67
2018-04-02T07:13:51.915Z,312.73
2018-04-02T07:15:58.359Z,480.53
2018-04-02T07:18:07.118Z,327.40
2018-04-02T07:20:17.055Z,280.10
2018-04-02T07:22:27.518Z,601.53
2018-04-02T07:24:33.200Z,746.87
2018-04-02T07:26:38.624Z,891.87
2018-04-02T07:28:44.805Z,758.37
2018-04-02T07:30:50.610Z,992.23
2018-04-02T07:32:56.856Z,933.80
2018-04-02T07:35:02.538Z,999.90
2018-04-02T07:37:08.376Z,975.03
2018-04-02T07:39:14.596Z,963.70
2018-04-02T07:41:20.064Z,874.77
2018-04-02T07:43:26.168Z,558.37
2018-04-02T07:45:32.764Z,556.73
2018-04-02T07:47:38.741Z,675.60
2018-04-02T07:49:45.652Z,721.53
2018-04-02T07:51:51.684Z,655.27
2018-04-02T07:53:58.078Z,712.77
2018-04-02T07:56:04.136Z,623.03
2018-04-02T07:58:09.489Z,755.50
2018-04-02T08:00:14.850Z,728.70
2018-04-02T08:02:21.865Z,576.87
2018-04-02T08:04:27.488Z,445.20
2018-04-02T08:06:32.880Z,262.47
2018-04-02T08:08:38.594Z,182.63
2018-04-02T08:10:44.176Z,110.97
2018-04-02T08:12:49.940Z,70.17
2018-04-02T08:14:57.092Z,400.73
2018-04-02T08:17:02.653Z,858.90
2018-04-02T08:19:08.573Z,683.60
2018-04-02T08:21:15.008Z,403.93
2018-04-02T08:23:21.012Z,189.63
2018-04-02T08:25:26.838Z,311.17
2018-04-02T08:27:32.956Z,294.10
2018-04-02T08:29:39.057Z,446.50
2018-04-02T08:31:44.799Z,233.17
2018-04-02T08:33:50.364Z,152.30
2018-04-02T08:35:56.428Z,86.13
2018-04-02T08:38:02.219Z,629.73
2018-04-02T08:40:08.245Z,258.73
2018-04-02T08:42:13.592Z,146.20
2018-04-02T08:44:19.029Z,112.57
2018-04-02T08:46:25.473Z,97.33
2018-04-02T08:48:31.104Z,75.27
2018-04-02T08:50:36.596Z,95.93
2018-04-02T08:52:42.332Z,132.67
2018-04-02T08:54:48.322Z,90.10
2018-04-02T08:56:54.369Z,43.17
2018-04-02T08:58:59.957Z,43.27
2018-04-02T09:01:05.231Z,130.10
2018-04-02T09:03:11.156Z,384.60
2018-04-02T09:05:16.769Z,284.90
2018-04-02T09:07:22.630Z,243.53
2018-04-02T09:09:28.100Z,144.77
2018-04-02T09:11:34.161Z,972.43
2018-04-02T09:13:39.621Z,598.63
2018-04-02T09:15:48.735Z,505.97
2018-04-02T09:17:55.091Z,369.10
2018-04-02T09:20:00.741Z,291.10
2018-04-02T09:22:06.058Z,291.73
2018-04-02T09:24:12.925Z,174.30
2018-04-02T09:26:19.884Z,136.63
2018-04-02T09:28:26.296Z,307.50
2018-04-02T09:30:31.975Z,207.90
2018-04-02T09:32:37.284Z,231.47
2018-04-02T09:34:43.343Z,138.63
2018-04-02T09:36:49.052Z,62.87
2018-04-02T09:38:54.356Z,35.20
2018-04-02T09:40:59.784Z,26.90
2018-04-02T09:43:06.790Z,23.73
2018-04-02T09:45:12.451Z,23.13
2018-04-02T09:47:17.792Z,22.60
2018-04-02T09:49:23.377Z,21.57
2018-04-02T09:51:28.726Z,690.00
2018-04-02T09:53:34.071Z,423.47
2018-04-02T09:55:39.769Z,111.67
2018-04-02T09:57:45.112Z,133.47
2018-04-02T09:59:50.389Z,469.30
2018-04-02T10:01:56.350Z,488.27
2018-04-02T10:04:03.081Z,234.33
2018-04-02T10:06:09.249Z,382.67
2018-04-02T10:08:14.875Z,235.67
2018-04-02T10:10:20.832Z,62.93
2018-04-02T10:12:26.312Z,42.97
2018-04-02T10:14:31.870Z,31.80
2018-04-02T10:16:37.257Z,25.70
2018-04-02T10:18:42.762Z,19.37
2018-04-02T10:20:48.476Z,16.80
2018-04-02T10:22:53.870Z,16.10
2018-04-02T10:24:59.248Z,146.30
2018-04-02T10:27:04.908Z,31.43
2018-04-02T10:29:10.261Z,21.33
2018-04-02T10:31:16.190Z,19.03
2018-04-02T10:33:22.063Z,15.90
2018-04-02T10:35:27.397Z,13.73
2018-04-02T10:37:32.816Z,65.77
2018-04-02T10:39:38.772Z,225.27
2018-04-02T10:41:44.136Z,347.60
2018-04-02T10:43:50.018Z,97.80
2018-04-02T10:45:55.728Z,32.83
2018-04-02T10:48:01.025Z,26.23
2018-04-02T10:50:06.788Z,19.07
2018-04-02T10:52:13.080Z,16.70
2018-04-02T10:54:18.303Z,15.23
2018-04-02T10:56:25.513Z,15.40
2018-04-02T10:58:31.161Z,13.47
2018-04-02T11:00:36.857Z,14.17
2018-04-02T11:02:42.220Z,274.90
2018-04-02T11:04:47.875Z,104.67
2018-04-02T11:06:53.189Z,37.00
2018-04-02T11:08:58.684Z,21.00
2018-04-02T11:11:05.132Z,105.17
2018-04-02T11:13:10.556Z,248.47
2018-04-02T11:15:15.953Z,366.77
2018-04-02T11:17:21.745Z,179.30
2018-04-02T11:19:27.721Z,72.53
2018-04-02T11:21:33.080Z,30.77
2018-04-02T11:23:38.644Z,22.17
2018-04-02T11:25:44.008Z,15.43
2018-04-02T11:27:49.375Z,14.10
2018-04-02T11:29:54.970Z,13.63
2018-04-02T11:32:00.456Z,12.20
2018-04-02T11:34:05.808Z,14.23
2018-04-02T11:36:11.407Z,13.47
2018-04-02T11:38:16.790Z,16.50
2018-04-02T11:40:22.154Z,348.27
2018-04-02T11:42:27.888Z,66.00
2018-04-02T11:44:33.114Z,51.77
2018-04-02T11:46:38.444Z,99.87
2018-04-02T11:48:43.976Z,33.30
2018-04-02T11:50:49.265Z,20.17
2018-04-02T11:52:54.668Z,16.67
2018-04-02T11:55:00.191Z,27.80
2018-04-02T11:57:06.376Z,24.53
2018-04-02T12:03:19.064Z,135.03
2018-04-02T12:05:24.367Z,473.67
2018-04-02T12:07:29.914Z,247.80
2018-04-02T12:09:36.256Z,96.17
2018-04-02T12:11:42.135Z,43.60
2018-04-02T12:13:47.440Z,26.60
2018-04-02T12:15:53.212Z,142.13
2018-04-02T12:17:59.198Z,67.03
2018-04-02T12:20:05.766Z,626.90
2018-04-02T12:22:17.136Z,252.93
2018-04-02T12:24:23.688Z,456.70
2018-04-02T12:26:29.744Z,273.43
2018-04-02T12:28:35.644Z,437.23
2018-04-02T12:30:41.657Z,171.23
2018-04-02T12:32:46.918Z,392.40
2018-04-02T12:34:52.681Z,515.40
2018-04-02T12:36:58.580Z,481.73
2018-04-02T12:39:04.622Z,308.50
2018-04-02T12:41:14.578Z,553.27
2018-04-02T12:43:19.895Z,420.23
2018-04-02T12:45:25.918Z,393.90
2018-04-02T12:47:31.623Z,539.13
2018-04-02T12:49:36.925Z,437.33
2018-04-02T12:51:42.500Z,291.23
2018-04-02T12:53:48.885Z,205.13
2018-04-02T12:55:54.261Z,60.77
2018-04-02T12:57:59.596Z,41.07
2018-04-02T13:00:05.442Z,30.40
2018-04-02T13:04:25.083Z,21.73
2018-04-02T13:06:31.813Z,19.40
2018-04-02T13:08:37.182Z,19.43
2018-04-02T13:10:42.514Z,14.80
2018-04-02T13:12:48.223Z,16.47
2018-04-02T13:14:58.713Z,15.33
2018-04-02T13:17:04.716Z,18.83
2018-04-02T13:19:10.492Z,16.30
2018-04-02T13:21:16.520Z,15.13
2018-04-02T13:23:22.464Z,15.40
2018-04-02T13:25:29.059Z,15.37
2018-04-02T13:27:34.385Z,16.90
2018-04-02T13:29:39.700Z,19.40
2018-04-02T13:31:45.563Z,15.67
2018-04-02T13:33:50.988Z,15.53
2018-04-02T13:35:56.532Z,17.17
2018-04-02T13:38:02.205Z,16.07
2018-04-02T13:40:07.528Z,16.33
2018-04-02T13:42:12.870Z,17.23
2018-04-02T13:44:18.624Z,17.60
2018-04-02T13:46:24.576Z,21.00
2018-04-02T13:48:29.892Z,20.90
2018-04-02T13:50:35.947Z,18.67
2018-04-02T13:52:40.840Z,16.10
2018-04-02T13:54:46.596Z,15.50
2018-04-02T13:56:52.134Z,15.10
2018-04-02T13:58:58.011Z,17.30
2018-04-02T14:01:03.313Z,14.07
2018-04-02T14:03:09.009Z,14.70
2018-04-02T14:05:14.512Z,15.73
2018-04-02T14:07:19.780Z,13.73
2018-04-02T14:09:26.061Z,14.97
2018-04-02T14:11:31.310Z,14.87
2018-04-02T14:13:36.701Z,12.47
2018-04-02T14:15:42.343Z,12.90
2018-04-02T14:17:47.641Z,11.87
2018-04-02T14:19:53.075Z,14.87
2018-04-02T14:21:59.331Z,12.87
2018-04-02T14:24:04.798Z,12.10
2018-04-02T14:26:10.033Z,13.07
2018-04-02T14:28:15.712Z,14.87
2018-04-02T14:30:21.128Z,13.67
2018-04-02T14:32:26.579Z,12.50
2018-04-02T14:34:32.593Z,10.50
2018-04-02T14:36:37.940Z,11.97
2018-04-02T14:38:44.026Z,12.17
2018-04-02T14:40:49.669Z,14.67
2018-04-02T14:42:56.217Z,13.50
2018-04-02T14:45:01.625Z,11.87
2018-04-02T14:47:07.397Z,11.80
2018-04-02T14:49:14.173Z,12.03
2018-04-02T14:51:19.529Z,12.87
2018-04-02T14:53:25.929Z,10.43
2018-04-02T14:55:31.319Z,9.60
2018-04-02T14:57:36.735Z,8.90
2018-04-02T14:59:46.762Z,8.83
2018-04-02T15:01:52.550Z,8.40
2018-04-02T15:03:57.994Z,9.97
2018-04-02T15:06:03.738Z,7.63
2018-04-02T15:08:08.956Z,7.57
2018-04-02T15:10:14.405Z,7.83
2018-04-02T15:12:20.382Z,8.53
2018-04-02T15:14:26.198Z,8.17
2018-04-02T15:16:31.536Z,213.00
2018-04-02T15:18:37.124Z,531.23
2018-04-02T15:20:42.453Z,304.10
2018-04-02T15:22:47.832Z,408.20
2018-04-02T15:24:53.491Z,536.53
2018-04-02T15:26:58.856Z,654.87
2018-04-02T15:29:04.313Z,344.07
2018-04-02T15:31:10.162Z,779.97
2018-04-02T15:33:15.484Z,747.23
2018-04-02T15:35:20.884Z,803.73
2018-04-02T15:37:26.705Z,433.20
2018-04-02T15:39:32.063Z,559.47
2018-04-02T15:41:37.441Z,639.33
2018-04-02T15:43:43.073Z,561.77
2018-04-02T15:45:48.509Z,512.20
2018-04-02T15:47:53.845Z,473.03
2018-04-02T15:49:59.739Z,657.10
2018-04-02T15:52:05.100Z,361.47
2018-04-02T15:54:10.512Z,542.03
2018-04-02T15:56:16.265Z,628.33
2018-04-02T15:58:21.730Z,380.77
2018-04-02T16:00:27.640Z,684.93
2018-04-02T16:02:33.419Z,353.87
2018-04-02T16:04:38.759Z,130.07
2018-04-02T16:06:44.190Z,256.67
2018-04-02T16:08:49.852Z,339.60
2018-04-02T16:10:55.217Z,208.27
2018-04-02T16:13:00.561Z,44.30
2018-04-02T16:15:07.536Z,20.70
2018-04-02T16:19:23.417Z,659.03
2018-04-02T16:21:29.043Z,540.40
2018-04-02T16:23:34.410Z,517.93
2018-04-02T16:25:40.109Z,632.77
2018-04-02T16:27:49.324Z,309.50
2018-04-02T16:29:55.521Z,100.97
2018-04-02T16:32:01.171Z,63.97
2018-04-02T16:34:12.738Z,45.00
2018-04-02T16:36:18.330Z,19.33
2018-04-02T16:38:23.820Z,13.70
2018-04-02T16:40:29.798Z,10.20
2018-04-02T16:42:35.772Z,10.10
2018-04-02T16:44:41.031Z,26.07
2018-04-02T16:46:46.678Z,27.00
2018-04-02T16:48:52.052Z,21.33
2018-04-02T16:50:57.533Z,20.60
2018-04-02T16:53:03.294Z,16.57
2018-04-02T16:55:08.637Z,22.27
2018-04-02T16:57:14.237Z,17.20
2018-04-02T16:59:19.885Z,19.43
2018-04-02T17:01:26.788Z,175.47
2018-04-02T17:03:32.343Z,38.13
2018-04-02T17:05:38.070Z,24.77
2018-04-02T17:07:43.435Z,17.67
2018-04-02T17:09:48.784Z,208.87
2018-04-02T17:11:54.440Z,312.83
2018-04-02T17:13:59.931Z,426.53
2018-04-02T17:16:05.353Z,709.77
2018-04-02T17:18:11.075Z,447.87
2018-04-02T17:20:16.544Z,714.23
2018-04-02T17:22:21.865Z,237.07
2018-04-02T17:24:27.530Z,572.60
2018-04-02T17:26:32.951Z,238.37
2018-04-02T17:28:38.297Z,113.47
2018-04-02T17:30:43.953Z,665.00
2018-04-02T17:32:49.251Z,638.60
2018-04-02T17:34:54.640Z,904.63
2018-04-02T17:37:00.216Z,999.90
2018-04-02T17:39:06.386Z,907.60
2018-04-02T17:41:11.807Z,629.27
2018-04-02T17:43:17.737Z,362.07
2018-04-02T17:45:23.093Z,170.13
2018-04-02T17:47:28.676Z,183.07
2018-04-02T17:49:34.524Z,274.80
2018-04-02T17:51:39.946Z,104.83
2018-04-02T17:53:45.736Z,600.03
2018-04-02T17:55:51.453Z,717.27
2018-04-02T17:57:57.047Z,594.03
2018-04-02T18:00:02.713Z,289.40
2018-04-02T18:02:09.593Z,409.43
2018-04-02T18:04:14.986Z,553.30
2018-04-02T18:06:21.480Z,185.07
2018-04-02T18:08:27.528Z,675.90
2018-04-02T18:10:33.130Z,624.80
2018-04-02T18:12:38.588Z,407.60
2018-04-02T18:14:44.205Z,908.70
2018-04-02T18:16:49.888Z,821.60
2018-04-02T18:18:55.391Z,980.97
2018-04-02T18:21:01.771Z,964.60
2018-04-02T18:23:07.113Z,851.87
2018-04-02T18:25:12.631Z,600.20
2018-04-02T18:27:18.463Z,361.60
2018-04-02T18:29:23.848Z,859.43
2018-04-02T18:31:29.501Z,851.73
2018-04-02T18:33:35.186Z,770.10
2018-04-02T18:35:40.680Z,805.50
2018-04-02T18:37:47.624Z,879.47
2018-04-02T18:39:54.406Z,795.73
2018-04-02T18:42:00.215Z,888.07
2018-04-02T18:44:05.760Z,768.87
2018-04-02T18:46:11.664Z,970.13
2018-04-02T18:48:17.018Z,999.90
2018-04-02T18:50:22.406Z,999.90
2018-04-02T18:52:28.382Z,926.87
2018-04-02T18:54:34.167Z,999.90
2018-04-02T18:56:39.872Z,834.70
2018-04-02T18:58:45.649Z,662.10
2018-04-02T19:00:51.107Z,539.17
2018-04-02T19:02:56.412Z,731.97
2018-04-02T19:05:02.135Z,987.73
2018-04-02T19:07:07.671Z,748.90
2018-04-02T19:09:13.968Z,999.90
2018-04-02T19:11:19.702Z,999.90
2018-04-02T19:13:25.365Z,966.57
2018-04-02T19:15:31.147Z,999.90
2018-04-02T19:17:39.006Z,741.70
2018-04-02T19:19:47.119Z,928.53
2018-04-02T19:21:52.539Z,694.70
2018-04-02T19:23:58.304Z,923.97
2018-04-02T19:26:03.599Z,580.87
2018-04-02T19:28:09.193Z,776.60
2018-04-02T19:30:15.548Z,809.63
2018-04-02T19:32:20.933Z,999.90
2018-04-02T19:34:26.338Z,562.13
2018-04-02T19:36:32.167Z,534.10
2018-04-02T19:38:38.733Z,350.73
2018-04-02T19:40:44.167Z,637.63
2018-04-02T19:42:50.041Z,726.17
2018-04-02T19:44:55.356Z,832.80
2018-04-02T19:47:00.792Z,831.80
2018-04-02T19:49:06.888Z,931.30
2018-04-02T19:51:13.021Z,599.43
2018-04-02T19:53:19.679Z,357.97
2018-04-02T19:55:25.488Z,217.93
2018-04-02T19:57:30.796Z,96.20
2018-04-02T19:59:37.490Z,46.80
2018-04-02T20:01:43.273Z,20.63
2018-04-02T20:03:48.852Z,17.20
2018-04-02T20:05:54.704Z,11.50
2018-04-02T20:08:00.671Z,10.70
2018-04-02T20:10:06.309Z,10.70
2018-04-02T20:12:12.996Z,8.57
2018-04-02T20:14:19.288Z,9.33
2018-04-02T20:16:24.793Z,7.07
2018-04-02T20:18:30.888Z,6.90
2018-04-02T20:20:37.483Z,6.67
2018-04-02T20:22:43.461Z,6.33
2018-04-02T20:24:49.120Z,6.10
2018-04-02T20:26:55.468Z,6.17
2018-04-02T20:29:01.024Z,5.90
2018-04-02T20:31:06.369Z,5.60
2018-04-02T20:33:12.946Z,6.30
2018-04-02T20:35:18.224Z,6.60
2018-04-02T20:37:23.806Z,6.10
2018-04-02T20:39:29.844Z,6.13
2018-04-02T20:41:35.311Z,5.83
2018-04-02T20:43:40.724Z,6.47
2018-04-02T20:45:46.391Z,6.50
2018-04-02T20:47:51.807Z,5.63
2018-04-02T20:49:57.230Z,4.97
2018-04-02T20:52:03.664Z,6.00
2018-04-02T20:54:09.473Z,5.23
2018-04-02T20:56:14.800Z,5.30
2018-04-02T20:58:20.564Z,5.83
2018-04-02T21:00:25.882Z,5.13
2018-04-02T21:02:31.148Z,5.53
2018-04-02T21:04:37.052Z,5.53
2018-04-02T21:06:42.460Z,5.47
2018-04-02T21:08:49.124Z,4.03
2018-04-02T21:10:55.184Z,4.70
2018-04-02T21:13:00.928Z,4.43
2018-04-02T21:15:06.431Z,4.90
2018-04-02T21:17:12.477Z,4.27
2018-04-02T21:19:17.992Z,3.63
2018-04-02T21:21:23.415Z,4.50
2018-04-02T21:23:29.102Z,3.30
2018-04-02T21:25:34.792Z,3.70
2018-04-02T21:27:40.223Z,3.30
2018-04-02T21:29:46.096Z,3.70
2018-04-02T21:31:56.612Z,3.63
2018-04-02T21:34:03.673Z,3.60
2018-04-02T21:36:23.948Z,3.63
2018-04-02T21:38:32.109Z,3.57
2018-04-02T21:40:43.567Z,3.70
2018-04-02T21:43:02.305Z,4.17
2018-04-02T21:45:08.088Z,4.43
2018-04-02T21:47:15.240Z,3.80
2018-04-02T21:49:22.618Z,3.70
2018-04-02T21:51:29.933Z,3.80
2018-04-02T21:53:35.930Z,3.57
2018-04-02T21:55:42.213Z,3.33
2018-04-02T21:57:47.752Z,4.00
2018-04-02T21:59:53.120Z,3.50
2018-04-02T22:01:59.543Z,3.70
2018-04-02T22:04:05.283Z,3.30
2018-04-02T22:06:15.704Z,3.27
2018-04-02T22:08:21.263Z,4.57
2018-04-02T22:10:26.686Z,3.07
2018-04-02T22:12:32.028Z,3.07
2018-04-02T22:14:37.619Z,2.90
2018-04-02T22:16:42.900Z,3.10
2018-04-02T22:18:48.189Z,3.20
2018-04-02T22:20:53.768Z,3.17
2018-04-02T22:22:59.061Z,2.97
2018-04-02T22:25:04.548Z,3.30
2018-04-02T22:27:10.173Z,3.20
2018-04-02T22:29:15.444Z,2.97
2018-04-02T22:31:21.868Z,2.77
2018-04-02T22:33:27.540Z,2.60
2018-04-02T22:35:32.896Z,2.70
2018-04-02T22:37:38.388Z,2.63
2018-04-02T22:39:44.841Z,2.80
2018-04-02T22:41:50.210Z,2.40
2018-04-02T22:43:55.508Z,2.70
2018-04-02T22:46:01.541Z,2.97
2018-04-02T22:48:06.816Z,2.50
2018-04-02T22:50:13.235Z,2.60
2018-04-02T22:52:20.324Z,2.40
2018-04-02T22:54:25.741Z,2.30
2018-04-02T22:56:31.295Z,2.13
2018-04-02T22:58:36.959Z,3.20
2018-04-02T23:00:42.668Z,2.60
2018-04-02T23:02:48.097Z,2.50
2018-04-02T23:04:53.672Z,2.67
2018-04-02T23:06:59.015Z,2.53
2018-04-02T23:09:04.704Z,2.70
2018-04-02T23:11:10.228Z,2.30
2018-04-02T23:13:15.468Z,2.93
2018-04-02T23:15:20.791Z,2.97
2018-04-02T23:17:26.392Z,3.00
2018-04-02T23:19:31.725Z,3.07
2018-04-02T23:21:37.008Z,2.60
2018-04-02T23:23:42.625Z,2.80
2018-04-02T23:25:47.943Z,2.97
2018-04-02T23:27:53.200Z,2.47
2018-04-02T23:29:58.835Z,2.70
2018-04-02T23:32:04.714Z,2.37
2018-04-02T23:34:09.952Z,3.10
2018-04-02T23:36:15.610Z,2.43
2018-04-02T23:38:21.241Z,2.93
2018-04-02T23:40:26.522Z,2.73
2018-04-02T23:42:32.116Z,2.53
2018-04-02T23:44:37.401Z,2.60
2018-04-02T23:46:42.736Z,2.80
2018-04-02T23:48:48.315Z,3.03
2018-04-02T23:50:54.343Z,2.83
2018-04-02T23:53:00.602Z,2.70
2018-04-02T23:55:09.596Z,2.43
2018-04-02T23:57:24.741Z,2.67
2018-04-02T23:59:35.320Z,2.17
